Time;durP1;ratioP1;P1;durP2;ratioP2;P2;SDS_P1;SDS_P2;PMS_P1;PMS_P2;Temp;Humidity;BMP_temperature;BMP_pressure;BME280_temperature;BME280_humidity;BME280_pressure;Samples;Min_cycle;Max_cycle;Signal;HPM_P1;HPM_P2
2022/05/23 00:02:07;;;;;;;4.67;4.27;;;18.60;99.90;;;;;;5031857;28;20203;-66
2022/05/23 00:04:34;;;;;;;5.00;4.70;;;18.50;99.90;;;;;;5031285;28;20708;-67
2022/05/23 00:06:59;;;;;;;4.83;4.10;;;18.40;99.90;;;;;;5030558;28;20172;-67
2022/05/23 00:09:26;;;;;;;4.40;4.03;;;18.40;99.90;;;;;;5031742;28;20240;-67
2022/05/23 00:11:53;;;;;;;4.70;4.50;;;18.30;99.90;;;;;;5032063;28;20172;-66
2022/05/23 00:14:19;;;;;;;4.90;4.60;;;18.20;99.90;;;;;;5031540;28;20314;-66
2022/05/23 00:16:48;;;;;;;4.70;4.40;;;18.20;99.90;;;;;;5031316;28;20223;-67
2022/05/23 00:19:15;;;;;;;5.97;4.80;;;18.10;99.90;;;;;;5032390;28;20526;-67
2022/05/23 00:21:42;;;;;;;5.03;4.30;;;18.00;99.90;;;;;;5031602;28;20187;-66
2022/05/23 00:24:15;;;;;;;4.73;4.43;;;18.00;99.90;;;;;;5031641;28;20203;-66
2022/05/23 00:26:43;;;;;;;5.80;5.40;;;18.00;99.90;;;;;;5031244;28;20184;-66
2022/05/23 00:29:09;;;;;;;5.13;4.77;;;17.90;99.90;;;;;;5031641;28;20675;-67
2022/05/23 00:31:35;;;;;;;5.23;4.93;;;18.00;99.90;;;;;;5031298;28;20175;-66
2022/05/23 00:36:45;;;;;;;5.30;4.90;;;17.90;99.90;;;;;;5031061;28;20557;-66
2022/05/23 00:39:10;;;;;;;5.43;4.87;;;17.90;99.90;;;;;;5031519;28;20176;-65
2022/05/23 00:44:32;;;;;;;4.60;4.27;;;17.80;99.90;;;;;;5034882;28;20225;-66
2022/05/23 00:46:59;;;;;;;5.00;4.60;;;17.80;99.90;;;;;;5034855;28;20232;-65
2022/05/23 00:49:35;;;;;;;7.73;4.90;;;17.80;99.90;;;;;;5035028;28;20184;-65
2022/05/23 00:52:06;;;;;;;4.87;4.47;;;17.70;99.90;;;;;;5034877;28;20338;-65
2022/05/23 00:54:39;;;;;;;5.00;4.50;;;17.70;99.90;;;;;;5034784;28;20777;-65
2022/05/23 00:57:07;;;;;;;5.70;4.50;;;17.60;99.90;;;;;;5034707;28;20266;-65
2022/05/23 00:59:34;;;;;;;5.60;5.20;;;17.60;99.90;;;;;;5034927;28;20188;-65
2022/05/23 01:02:03;;;;;;;4.80;4.40;;;17.60;99.90;;;;;;5034806;28;20187;-65
2022/05/23 01:04:31;;;;;;;5.27;4.97;;;17.70;99.90;;;;;;5034563;28;20211;-66
2022/05/23 01:06:57;;;;;;;5.20;4.80;;;17.70;99.90;;;;;;5034602;28;20190;-65
2022/05/23 01:09:26;;;;;;;6.90;4.73;;;17.60;99.90;;;;;;5034842;28;20180;-65
2022/05/23 01:11:53;;;;;;;5.37;4.97;;;17.60;99.90;;;;;;5034681;28;20653;-66
2022/05/23 01:14:20;;;;;;;5.00;4.70;;;17.60;99.90;;;;;;5034667;28;20597;-65
2022/05/23 01:16:45;;;;;;;5.77;4.70;;;17.60;99.90;;;;;;5034096;28;20222;-65
2022/05/23 01:19:12;;;;;;;4.73;4.53;;;17.60;99.90;;;;;;5034593;28;20234;-65
2022/05/23 01:21:59;;;;;;;4.93;4.63;;;17.60;99.90;;;;;;5034263;28;20191;-65
2022/05/23 01:24:31;;;;;;;4.77;4.40;;;17.60;99.90;;;;;;5034117;28;20215;-66
2022/05/23 01:26:59;;;;;;;4.90;4.50;;;17.60;99.90;;;;;;5034353;28;20197;-65
2022/05/23 01:29:24;;;;;;;6.17;4.67;;;17.70;99.90;;;;;;5033974;28;20641;-65
2022/05/23 01:31:50;;;;;;;4.97;4.60;;;17.60;99.90;;;;;;5047371;28;20174;-64
2022/05/23 01:34:16;;;;;;;5.50;5.00;;;17.60;99.90;;;;;;5054272;28;20179;-65
2022/05/23 01:36:41;;;;;;;4.53;4.23;;;17.60;99.90;;;;;;5053979;28;20175;-65
2022/05/23 01:39:07;;;;;;;4.97;4.67;;;17.60;99.90;;;;;;5047255;28;20191;-65
2022/05/23 01:41:32;;;;;;;5.57;5.10;;;17.50;99.90;;;;;;5035029;28;20225;-66
2022/05/23 01:43:58;;;;;;;5.23;4.83;;;17.50;99.90;;;;;;5035743;28;20668;-66
2022/05/23 01:46:24;;;;;;;5.40;5.10;;;17.50;99.90;;;;;;5035557;28;20191;-65
2022/05/23 01:48:50;;;;;;;5.27;4.97;;;17.50;99.90;;;;;;5034529;28;20182;-65
2022/05/23 01:51:15;;;;;;;6.37;4.43;;;17.60;99.90;;;;;;5034900;28;20179;-65
2022/05/23 01:53:41;;;;;;;5.33;4.93;;;17.60;99.90;;;;;;5034469;28;20179;-66
2022/05/23 01:56:08;;;;;;;5.73;4.93;;;17.60;99.90;;;;;;5036435;28;20192;-66
2022/05/23 02:01:19;;;;;;;5.60;5.20;;;17.70;99.90;;;;;;5015758;28;20322;-65
2022/05/23 02:03:46;;;;;;;5.57;4.87;;;17.70;99.90;;;;;;5014982;28;20177;-65
2022/05/23 02:06:12;;;;;;;5.00;4.70;;;17.60;99.90;;;;;;5033378;28;20211;-65
2022/05/23 02:08:38;;;;;;;5.87;5.47;;;17.60;99.90;;;;;;5033927;28;20633;-65
2022/05/23 02:11:06;;;;;;;5.90;4.93;;;17.60;99.90;;;;;;5033425;28;20225;-65
2022/05/23 02:13:42;;;;;;;5.57;5.13;;;17.60;99.90;;;;;;5033285;28;20182;-65
2022/05/23 02:16:08;;;;;;;5.03;4.53;;;17.50;99.90;;;;;;5033277;28;20206;-65
2022/05/23 02:18:34;;;;;;;5.70;4.87;;;17.50;99.90;;;;;;5033261;28;20591;-65
2022/05/23 02:21:00;;;;;;;5.40;5.10;;;17.40;99.90;;;;;;5033397;28;20176;-65
2022/05/23 02:23:25;;;;;;;5.53;5.03;;;17.50;99.90;;;;;;5033068;28;20237;-66
2022/05/23 02:25:51;;;;;;;5.70;5.30;;;17.40;99.90;;;;;;5032970;28;20282;-65
2022/05/23 02:28:18;;;;;;;5.57;5.10;;;17.40;99.90;;;;;;5033101;28;20184;-65
2022/05/23 02:30:46;;;;;;;5.73;5.23;;;17.50;99.90;;;;;;5033322;28;20175;-65
2022/05/23 02:33:13;;;;;;;4.87;4.57;;;17.50;99.90;;;;;;5033004;28;20176;-65
2022/05/23 02:35:39;;;;;;;5.23;4.93;;;17.50;99.90;;;;;;5032649;28;20207;-64
2022/05/23 02:38:05;;;;;;;4.57;4.33;;;17.50;99.90;;;;;;5013455;28;20602;-64
2022/05/23 02:40:31;;;;;;;5.53;5.13;;;17.60;99.90;;;;;;5021621;28;20187;-65
2022/05/23 02:42:56;;;;;;;4.30;4.07;;;17.60;99.90;;;;;;5032957;28;20172;-65
2022/05/23 02:45:22;;;;;;;5.63;5.30;;;17.60;99.90;;;;;;5032185;28;20207;-65
2022/05/23 02:47:49;;;;;;;5.50;5.20;;;17.60;99.90;;;;;;5032929;28;20182;-65
2022/05/23 02:50:14;;;;;;;5.87;5.20;;;17.50;99.90;;;;;;5032715;28;20580;-65
2022/05/23 02:52:41;;;;;;;5.00;4.70;;;17.60;99.90;;;;;;5032814;28;20176;-65
2022/05/23 02:55:08;;;;;;;6.00;4.90;;;17.50;99.90;;;;;;5032075;28;20199;-65
2022/05/23 02:57:35;;;;;;;5.87;4.83;;;17.50;99.90;;;;;;5032656;28;20181;-65
2022/05/23 03:00:01;;;;;;;5.83;5.30;;;17.40;99.90;;;;;;5032651;28;20190;-66
2022/05/23 03:05:10;;;;;;;5.07;4.77;;;17.50;99.90;;;;;;5031030;28;20313;-66
2022/05/23 03:07:36;;;;;;;4.67;4.40;;;17.50;99.90;;;;;;5031256;28;20641;-67
2022/05/23 03:10:03;;;;;;;5.60;5.10;;;17.50;99.90;;;;;;5032376;28;20183;-67
2022/05/23 03:12:29;;;;;;;6.10;5.80;;;17.50;99.90;;;;;;5032460;28;20168;-66
2022/05/23 03:14:55;;;;;;;4.97;4.60;;;17.50;99.90;;;;;;5032037;28;20269;-65
2022/05/23 03:17:20;;;;;;;4.83;4.53;;;17.50;99.90;;;;;;5032092;28;20226;-66
2022/05/23 03:19:46;;;;;;;5.00;4.70;;;17.50;99.90;;;;;;5032423;28;20179;-65
2022/05/23 03:27:42;;;;;;;6.30;4.80;;;17.50;99.90;;;;;;5023020;28;20237;-64
2022/05/23 03:30:09;;;;;;;5.70;5.20;;;17.50;99.90;;;;;;5032338;28;20175;-65
2022/05/23 03:32:35;;;;;;;5.47;4.93;;;17.50;99.90;;;;;;5031794;28;20199;-66
2022/05/23 03:35:02;;;;;;;4.80;4.40;;;17.50;99.90;;;;;;5031396;28;20567;-66
2022/05/23 03:37:28;;;;;;;5.37;5.07;;;17.50;99.90;;;;;;5031950;28;20172;-66
2022/05/23 03:39:54;;;;;;;5.10;4.80;;;17.40;99.90;;;;;;5031784;28;20190;-65
2022/05/23 03:42:19;;;;;;;4.83;4.43;;;17.40;99.90;;;;;;5031974;28;20175;-66
2022/05/23 03:44:45;;;;;;;5.30;4.90;;;17.40;99.90;;;;;;5031885;28;20306;-65
2022/05/23 03:47:11;;;;;;;5.93;5.43;;;17.40;99.90;;;;;;5032214;28;20184;-67
2022/05/23 03:49:37;;;;;;;5.40;5.00;;;17.40;99.90;;;;;;5031612;28;20207;-67
2022/05/23 03:52:03;;;;;;;5.33;5.03;;;17.40;99.90;;;;;;5031895;28;20216;-68
2022/05/23 03:54:29;;;;;;;5.00;4.70;;;17.40;99.90;;;;;;5031519;28;20211;-66
2022/05/23 03:56:59;;;;;;;5.53;4.93;;;17.40;99.90;;;;;;5031697;28;20668;-67
2022/05/23 03:59:26;;;;;;;4.97;4.50;;;17.40;99.90;;;;;;5031830;28;20187;-67
2022/05/23 04:01:54;;;;;;;5.00;4.70;;;17.40;99.90;;;;;;5031599;28;20246;-67
2022/05/23 04:04:20;;;;;;;4.90;4.60;;;17.40;99.90;;;;;;5031528;28;20211;-67
2022/05/23 04:06:47;;;;;;;5.43;5.13;;;17.50;99.90;;;;;;5031166;28;20222;-67
2022/05/23 04:09:12;;;;;;;4.80;4.53;;;17.50;99.90;;;;;;5031461;28;20249;-67
2022/05/23 04:11:38;;;;;;;4.90;4.50;;;17.50;99.90;;;;;;5031488;28;20184;-66
2022/05/23 04:14:04;;;;;;;5.10;4.60;;;17.50;99.90;;;;;;5030196;28;20183;-67
2022/05/23 04:16:29;;;;;;;5.40;5.00;;;17.60;99.90;;;;;;5030974;28;20171;-67
2022/05/23 04:18:56;;;;;;;5.40;5.10;;;17.60;99.90;;;;;;5031390;28;20207;-67
2022/05/23 04:21:21;;;;;;;5.80;5.23;;;17.60;99.90;;;;;;5031274;28;20163;-67
2022/05/23 04:23:47;;;;;;;5.33;5.03;;;17.70;99.90;;;;;;5031288;28;20193;-67
2022/05/23 04:26:13;;;;;;;5.03;4.67;;;17.70;99.90;;;;;;5030918;28;20320;-67
2022/05/23 04:28:39;;;;;;;5.70;5.30;;;17.80;99.90;;;;;;5031142;28;20175;-66
2022/05/23 04:31:06;;;;;;;4.87;4.60;;;17.90;99.90;;;;;;5031174;28;20191;-67
2022/05/23 04:36:16;;;;;;;5.63;5.23;;;18.00;99.90;;;;;;5030905;28;20578;-66
2022/05/23 04:38:42;;;;;;;4.40;4.20;;;18.10;99.90;;;;;;5031633;28;20191;-65
2022/05/23 04:41:07;;;;;;;5.10;4.70;;;18.20;99.90;;;;;;5030984;28;20191;-66
2022/05/23 04:43:33;;;;;;;5.73;4.63;;;18.20;99.90;;;;;;5031179;28;20179;-66
2022/05/23 04:45:59;;;;;;;5.00;4.70;;;18.30;99.90;;;;;;5030562;28;20579;-66
2022/05/23 04:51:09;;;;;;;5.10;4.70;;;18.20;99.90;;;;;;5031002;28;20190;-66
2022/05/23 04:53:34;;;;;;;4.60;4.30;;;18.10;99.90;;;;;;5031160;28;20258;-65
2022/05/23 04:56:00;;;;;;;4.77;4.47;;;18.10;99.90;;;;;;5030557;28;20277;-65
2022/05/23 04:58:27;;;;;;;5.13;4.83;;;18.10;99.90;;;;;;5033736;28;20210;-67
2022/05/23 05:00:56;;;;;;;5.17;4.87;;;18.10;99.90;;;;;;5041632;28;20600;-64
2022/05/23 05:03:22;;;;;;;5.43;4.93;;;18.10;99.90;;;;;;5031148;28;20175;-65
2022/05/23 05:05:48;;;;;;;5.40;5.10;;;18.10;99.90;;;;;;5030992;28;20736;-64
2022/05/23 05:08:14;;;;;;;5.03;4.77;;;18.20;99.90;;;;;;5030961;28;20175;-65
2022/05/23 05:10:40;;;;;;;5.60;5.20;;;18.20;99.90;;;;;;5031137;28;20183;-66
2022/05/23 05:13:06;;;;;;;5.00;4.50;;;18.30;99.90;;;;;;5030691;28;20649;-65
2022/05/23 05:15:32;;;;;;;5.30;4.90;;;18.30;99.90;;;;;;5030696;28;20237;-66
2022/05/23 05:17:57;;;;;;;5.20;4.80;;;18.40;99.90;;;;;;5030866;28;20538;-65
2022/05/23 05:20:23;;;;;;;5.17;4.87;;;18.40;99.90;;;;;;5031347;28;20183;-65
2022/05/23 05:22:50;;;;;;;4.97;4.67;;;18.40;99.90;;;;;;5030912;28;20253;-65
2022/05/23 05:25:19;;;;;;;5.53;5.20;;;18.40;99.90;;;;;;5030378;28;20439;-65
2022/05/23 05:27:45;;;;;;;4.83;4.53;;;18.50;99.90;;;;;;5032454;28;20237;-65
2022/05/23 05:30:16;;;;;;;4.97;4.60;;;18.60;99.90;;;;;;5034568;28;20168;-65
2022/05/23 05:32:48;;;;;;;5.10;4.60;;;18.60;99.90;;;;;;5036340;28;20286;-64
2022/05/23 05:35:33;;;;;;;5.13;4.70;;;18.60;99.90;;;;;;5053841;28;20548;-66
2022/05/23 05:38:13;;;;;;;4.80;4.43;;;18.70;99.90;;;;;;5053149;28;20186;-65
2022/05/23 05:40:39;;;;;;;4.90;4.60;;;18.80;99.90;;;;;;5053791;28;20174;-65
2022/05/23 05:43:10;;;;;;;5.03;4.73;;;18.90;99.90;;;;;;5033865;28;20278;-65
2022/05/23 05:45:48;;;;;;;4.80;4.50;;;18.90;99.90;;;;;;5033650;28;20219;-65
2022/05/23 05:48:14;;;;;;;4.63;4.23;;;19.00;99.90;;;;;;5014467;28;20613;-65
2022/05/23 05:50:42;;;;;;;4.33;4.03;;;19.10;99.90;;;;;;5014399;28;20295;-64
2022/05/23 05:53:14;;;;;;;4.60;4.30;;;19.20;99.90;;;;;;5033250;28;20172;-65
2022/05/23 05:55:41;;;;;;;4.70;4.30;;;19.20;99.90;;;;;;5033429;28;20222;-65
2022/05/23 05:58:08;;;;;;;4.50;4.20;;;19.30;99.90;;;;;;5032593;28;20649;-66
2022/05/23 06:00:34;;;;;;;4.00;3.80;;;19.40;99.90;;;;;;5033891;28;20171;-64
2022/05/23 06:02:59;;;;;;;4.50;4.10;;;19.50;99.90;;;;;;5033419;28;20187;-65
2022/05/23 06:05:25;;;;;;;5.00;4.60;;;19.60;99.90;;;;;;5034622;28;20249;-66
2022/05/23 06:13:19;;;;;;;4.70;4.40;;;19.90;99.90;;;;;;5033595;28;20175;-66
2022/05/23 06:15:45;;;;;;;4.67;4.40;;;20.00;99.90;;;;;;5032926;28;20199;-65
2022/05/23 06:18:11;;;;;;;4.20;4.00;;;20.10;99.90;;;;;;5033622;28;20719;-65
2022/05/23 06:20:37;;;;;;;4.60;4.40;;;20.10;99.90;;;;;;5033372;28;20194;-65
2022/05/23 06:23:04;;;;;;;6.60;4.70;;;20.20;99.90;;;;;;5026302;28;20188;-64
2022/05/23 06:25:30;;;;;;;4.33;4.03;;;20.40;99.90;;;;;;5028670;28;20214;-67
2022/05/23 06:27:56;;;;;;;4.83;4.50;;;20.50;99.90;;;;;;5032639;28;20493;-66
2022/05/23 06:30:23;;;;;;;4.30;4.10;;;20.60;99.90;;;;;;5033114;28;20262;-65
2022/05/23 06:32:49;;;;;;;4.43;4.13;;;20.70;99.90;;;;;;5033282;28;20168;-65
2022/05/23 06:35:15;;;;;;;4.75;4.30;;;20.70;99.90;;;;;;5032431;28;20210;-65
2022/05/23 06:37:42;;;;;;;4.57;4.20;;;20.80;99.90;;;;;;5033124;28;20215;-66
2022/05/23 06:40:11;;;;;;;4.10;3.80;;;20.80;99.90;;;;;;5031891;28;20179;-66
2022/05/23 06:42:37;;;;;;;4.30;4.10;;;20.60;99.90;;;;;;5032502;28;20183;-66
2022/05/23 06:45:04;;;;;;;4.63;4.32;;;20.50;99.90;;;;;;5032394;28;20200;-66
2022/05/23 06:47:30;;;;;;;4.67;4.37;;;20.40;99.90;;;;;;5032979;28;20675;-66
2022/05/23 06:49:57;;;;;;;5.97;4.60;;;20.30;99.90;;;;;;5033341;28;20203;-66
2022/05/23 06:52:23;;;;;;;4.20;3.93;;;20.20;99.90;;;;;;5033030;28;20194;-66
2022/05/23 06:54:49;;;;;;;4.63;4.23;;;20.20;99.90;;;;;;5032752;28;20222;-66
2022/05/23 06:57:15;;;;;;;4.77;4.47;;;20.20;99.90;;;;;;5032523;28;20210;-66
2022/05/23 06:59:41;;;;;;;4.23;4.03;;;20.10;99.90;;;;;;5032792;28;20214;-67
2022/05/23 07:02:07;;;;;;;4.53;4.13;;;20.10;99.90;;;;;;5032766;28;20184;-67
2022/05/23 07:12:50;;;;;;;4.93;4.43;;;20.40;99.90;;;;;;5032589;28;20274;-66
2022/05/23 07:15:16;;;;;;;4.77;4.37;;;20.50;99.90;;;;;;5031864;28;20274;-67
2022/05/23 07:17:42;;;;;;;4.70;4.30;;;20.50;99.90;;;;;;5032188;28;20195;-66
2022/05/23 07:20:08;;;;;;;4.90;4.50;;;20.40;99.90;;;;;;5032565;28;20176;-66
2022/05/23 07:22:34;;;;;;;4.30;4.00;;;20.50;99.90;;;;;;5032089;28;20602;-66
2022/05/23 07:25:01;;;;;;;4.50;4.20;;;20.60;99.90;;;;;;5031882;28;20207;-66
2022/05/23 07:27:28;;;;;;;4.67;4.27;;;20.70;99.90;;;;;;5031835;28;20270;-66
2022/05/23 07:29:54;;;;;;;4.43;4.20;;;20.90;99.90;;;;;;5032420;28;20176;-66
2022/05/23 07:32:20;;;;;;;6.17;4.30;;;21.00;99.90;;;;;;5031308;28;20274;-66
2022/05/23 07:34:45;;;;;;;4.27;3.93;;;21.10;99.90;;;;;;5031845;28;20589;-66
2022/05/23 07:37:12;;;;;;;4.90;4.50;;;21.20;99.90;;;;;;5031613;28;20191;-67
2022/05/23 07:39:39;;;;;;;4.60;4.30;;;21.50;99.90;;;;;;5031130;28;20176;-65
2022/05/23 07:42:07;;;;;;;4.88;4.35;;;21.60;99.90;;;;;;5031880;28;20187;-65
2022/05/23 07:44:33;;;;;;;5.43;4.95;;;21.70;99.90;;;;;;5031388;28;20214;-64
2022/05/23 07:46:59;;;;;;;4.72;4.32;;;21.60;99.90;;;;;;5031639;28;20175;-64
2022/05/23 07:49:26;;;;;;;4.70;4.22;;;21.40;99.90;;;;;;5031560;28;20190;-65
2022/05/23 07:51:53;;;;;;;4.43;4.18;;;21.30;99.90;;;;;;5031232;28;20163;-66
2022/05/23 08:02:31;;;;;;;4.60;4.30;;;21.80;99.90;;;;;;5012005;28;20183;-65
2022/05/23 08:04:58;;;;;;;4.40;4.10;;;21.70;99.90;;;;;;5015090;28;20680;-65
2022/05/23 08:07:28;;;;;;;4.53;4.13;;;21.90;99.90;;;;;;5031360;28;20695;-64
2022/05/23 08:09:55;;;;;;;4.35;3.95;;;22.20;99.90;;;;;;5031600;28;20325;-65
2022/05/23 08:12:21;;;;;;;4.53;4.22;;;22.30;99.90;;;;;;5031431;28;20262;-65
2022/05/23 08:14:46;;;;;;;5.10;4.32;;;22.60;99.90;;;;;;5029928;28;20274;-65
2022/05/23 08:17:12;;;;;;;3.95;3.67;;;22.80;99.90;;;;;;5031570;28;20168;-65
2022/05/23 08:19:38;;;;;;;4.70;3.70;;;23.20;99.90;;;;;;5031384;28;20172;-65
2022/05/23 08:22:04;;;;;;;4.03;3.72;;;23.40;99.90;;;;;;5031325;28;20246;-65
2022/05/23 08:24:30;;;;;;;5.43;4.07;;;23.80;99.90;;;;;;5030821;28;20207;-65
2022/05/23 08:26:56;;;;;;;4.40;4.00;;;24.00;99.90;;;;;;5031224;28;20182;-65
2022/05/23 08:29:21;;;;;;;4.32;4.03;;;24.10;99.90;;;;;;5031142;28;20540;-65
2022/05/23 08:31:48;;;;;;;4.93;4.63;;;24.00;99.90;;;;;;5031097;28;20217;-65
2022/05/23 08:34:14;;;;;;;3.80;3.60;;;23.70;99.90;;;;;;5031071;28;20183;-66
2022/05/23 08:36:40;;;;;;;4.13;3.92;;;23.40;99.90;;;;;;5028956;28;20244;-65
2022/05/23 08:39:06;;;;;;;3.95;3.75;;;23.40;99.90;;;;;;5030914;28;20255;-65
2022/05/23 08:41:35;;;;;;;3.95;3.75;;;23.40;99.90;;;;;;5031040;28;20341;-66
2022/05/23 08:44:16;;;;;;;4.55;3.85;;;23.60;99.90;;;;;;5030802;28;20642;-65
2022/05/23 08:46:55;;;;;;;3.90;3.47;;;23.90;99.90;;;;;;5030876;28;20194;-64
2022/05/23 08:49:29;;;;;;;3.72;3.30;;;24.30;99.90;;;;;;5030850;28;20171;-65
2022/05/23 08:52:14;;;;;;;3.85;3.63;;;24.30;99.90;;;;;;5031378;28;20184;-65
2022/05/23 08:55:07;;;;;;;8.57;3.92;;;24.10;99.90;;;;;;5030660;28;20203;-64
2022/05/23 08:58:08;;;;;;;3.78;3.42;;;24.10;99.90;;;;;;5030918;28;20179;-65
2022/05/23 09:00:45;;;;;;;4.55;4.13;;;24.20;99.90;;;;;;5030888;28;20187;-66
2022/05/23 09:03:31;;;;;;;6.78;4.00;;;24.20;99.90;;;;;;5033059;28;20178;-65
2022/05/23 09:06:14;;;;;;;5.55;4.15;;;24.10;99.90;;;;;;5034721;28;20289;-66
2022/05/23 09:08:53;;;;;;;4.93;3.92;;;24.10;99.90;;;;;;5032695;28;20202;-64
2022/05/23 09:11:31;;;;;;;3.67;3.47;;;24.00;99.90;;;;;;5034746;28;20175;-65
2022/05/23 10:04:51;;;;;;;3.97;3.67;;;25.60;99.90;;;;;;5126317;27;20587;-65
2022/05/23 10:07:47;;;;;;;3.85;3.60;;;26.60;99.90;;;;;;5109325;27;20454;-67
2022/05/23 10:10:28;;;;;;;4.18;3.88;;;26.30;99.90;;;;;;5087268;28;20403;-66
2022/05/23 10:13:36;;;;;;;4.20;4.00;;;26.30;99.90;;;;;;5092442;28;20176;-67
2022/05/23 10:16:22;;;;;;;3.50;3.30;;;26.00;99.90;;;;;;5085916;28;20679;-65
2022/05/23 10:18:52;;;;;;;3.90;3.70;;;26.00;99.90;;;;;;5105088;28;20195;-65
2022/05/23 10:21:26;;;;;;;7.18;4.00;;;26.20;99.90;;;;;;5114760;28;20188;-66
2022/05/23 10:24:09;;;;;;;3.72;3.53;;;26.30;99.90;;;;;;5108299;28;20200;-65
2022/05/23 10:27:07;;;;;;;3.92;3.40;;;26.60;99.90;;;;;;5108612;28;20194;-65
2022/05/23 10:29:58;;;;;;;3.55;3.35;;;26.60;99.90;;;;;;5093062;28;20189;-66
2022/05/23 10:32:48;;;;;;;3.88;3.58;;;26.40;99.90;;;;;;5118547;28;20271;-65
2022/05/23 10:35:37;;;;;;;3.53;3.33;;;26.20;99.90;;;;;;5111482;27;20254;-65
2022/05/23 10:43:52;;;;;;;3.28;3.13;;;26.80;99.90;;;;;;5127166;28;20226;-64
2022/05/23 10:46:17;;;;;;;4.20;3.90;;;27.20;99.90;;;;;;5128011;27;20173;-66
2022/05/23 10:49:21;;;;;;;3.58;3.38;;;27.40;99.90;;;;;;5112317;28;20217;-65
2022/05/23 10:52:05;;;;;;;4.05;3.85;;;27.60;99.90;;;;;;5115353;27;20601;-64
2022/05/23 10:54:49;;;;;;;4.10;3.70;;;27.60;99.90;;;;;;5123053;28;20192;-65
2022/05/23 10:57:20;;;;;;;3.90;3.60;;;27.40;99.90;;;;;;5117927;27;20247;-65
2022/05/23 11:00:06;;;;;;;4.85;3.50;;;27.50;99.90;;;;;;5118212;28;20634;-65
2022/05/23 11:02:41;;;;;;;3.90;3.60;;;27.40;99.90;;;;;;5123726;28;20196;-65
2022/05/23 11:05:52;;;;;;;4.18;3.92;;;27.20;99.90;;;;;;5101213;28;20195;-65
2022/05/23 11:08:51;;;;;;;3.85;3.55;;;27.30;99.90;;;;;;5072962;28;20202;-66
2022/05/23 11:11:29;;;;;;;4.00;3.70;;;27.30;99.90;;;;;;5075483;28;20231;-66
2022/05/23 11:14:22;;;;;;;3.97;3.75;;;27.30;99.90;;;;;;5085736;28;20168;-65
2022/05/23 11:17:10;;;;;;;3.80;3.50;;;27.20;99.90;;;;;;5110123;28;20177;-65
2022/05/23 11:19:36;;;;;;;3.90;3.70;;;27.00;99.90;;;;;;5105504;28;20185;-63
2022/05/23 11:22:19;;;;;;;3.75;3.55;;;27.00;99.90;;;;;;5101810;28;20186;-65
2022/05/23 11:24:55;;;;;;;4.00;3.70;;;26.90;99.90;;;;;;5110522;28;20728;-65
2022/05/23 11:36:00;;;;;;;4.10;3.80;;;27.60;99.90;;;;;;5093771;28;20228;-65
2022/05/23 11:38:29;;;;;;;3.65;3.45;;;27.70;99.90;;;;;;5094107;28;20185;-63
2022/05/23 11:41:06;;;;;;;3.67;3.30;;;27.70;99.90;;;;;;5094852;28;20184;-64
2022/05/23 11:43:32;;;;;;;4.28;3.80;;;28.30;99.90;;;;;;5112791;28;20204;-65
2022/05/23 11:46:04;;;;;;;4.47;4.28;;;28.60;99.90;;;;;;5112717;28;20185;-65
2022/05/23 11:48:39;;;;;;;4.40;4.10;;;28.50;99.90;;;;;;5100336;28;20569;-65
2022/05/23 11:51:39;;;;;;;5.22;4.20;;;28.50;99.90;;;;;;5101311;28;20180;-65
2022/05/23 11:54:23;;;;;;;4.40;4.03;;;28.30;99.90;;;;;;5092779;28;20354;-64
2022/05/23 11:57:02;;;;;;;4.82;4.53;;;27.80;99.90;;;;;;5097099;28;20183;-65
2022/05/23 11:59:27;;;;;;;5.38;4.90;;;27.60;99.90;;;;;;5113592;28;20225;-63
2022/05/23 12:02:09;;;;;;;3.92;3.72;;;27.50;99.90;;;;;;5107970;28;20169;-65
2022/05/23 12:04:51;;;;;;;5.05;4.65;;;27.40;99.90;;;;;;5093779;28;20207;-65
2022/05/23 12:07:45;;;;;;;4.13;3.72;;;27.30;99.90;;;;;;5108351;28;20177;-65
2022/05/23 12:10:27;;;;;;;5.15;4.85;;;27.50;99.90;;;;;;5058568;28;20182;-64
2022/05/23 12:12:57;;;;;;;4.88;4.57;;;27.60;99.90;;;;;;5113185;28;20184;-65
2022/05/23 12:15:42;;;;;;;5.03;4.72;;;27.90;99.90;;;;;;5102397;28;20718;-64
2022/05/23 12:18:29;;;;;;;4.18;3.78;;;28.20;99.90;;;;;;5092949;28;20652;-64
2022/05/23 12:20:57;;;;;;;5.82;5.43;;;28.50;99.90;;;;;;5108250;28;20189;-65
2022/05/23 12:23:34;;;;;;;4.53;4.13;;;28.40;99.90;;;;;;5097925;28;20675;-65
2022/05/23 12:26:11;;;;;;;4.13;3.80;;;27.90;99.90;;;;;;5107399;28;20569;-65
2022/05/23 12:28:57;;;;;;;5.35;4.88;;;27.60;99.90;;;;;;5108496;28;20169;-65
2022/05/23 12:31:30;;;;;;;4.60;4.30;;;27.20;99.90;;;;;;5108909;28;20263;-64
2022/05/23 12:34:02;;;;;;;4.40;4.15;;;26.90;99.90;;;;;;5108370;28;20172;-65
2022/05/23 12:36:31;;;;;;;5.88;5.47;;;26.70;99.90;;;;;;5096269;28;20237;-64
2022/05/23 12:39:33;;;;;;;4.88;4.57;;;26.40;99.90;;;;;;5099717;28;20184;-65
2022/05/23 12:42:17;;;;;;;5.63;5.13;;;26.20;99.90;;;;;;5092763;28;20175;-64
2022/05/23 12:45:04;;;;;;;4.55;4.25;;;26.10;99.90;;;;;;5092002;28;20185;-65
2022/05/23 12:48:07;;;;;;;4.50;4.10;;;25.90;99.90;;;;;;5091438;28;20181;-65
2022/05/23 12:50:44;;;;;;;4.07;3.78;;;25.80;99.90;;;;;;5101797;28;20172;-64
2022/05/23 12:53:31;;;;;;;5.38;4.70;;;25.70;99.90;;;;;;5100960;28;20180;-65
2022/05/23 12:56:28;;;;;;;7.18;6.57;;;25.60;99.90;;;;;;5092445;28;20277;-65
2022/05/23 12:59:44;;;;;;;7.53;4.75;;;25.40;99.90;;;;;;5092453;28;20520;-65
2022/05/23 13:02:16;;;;;;;5.43;4.45;;;25.10;99.90;;;;;;5053220;28;20261;-65
2022/05/23 13:04:57;;;;;;;5.18;4.78;;;24.90;99.90;;;;;;5067225;28;20699;-66
2022/05/23 13:07:47;;;;;;;4.28;3.97;;;24.70;99.90;;;;;;5072263;28;20181;-65
2022/05/23 13:10:36;;;;;;;5.03;4.68;;;24.40;99.90;;;;;;5092163;28;20169;-66
2022/05/23 13:13:23;;;;;;;4.13;3.83;;;24.30;99.90;;;;;;5071888;28;20175;-65
2022/05/23 13:15:49;;;;;;;3.85;3.65;;;24.20;99.90;;;;;;5071624;28;20277;-65
2022/05/23 13:23:52;;;;;;;4.97;4.68;;;23.60;99.90;;;;;;5091499;28;20227;-64
2022/05/23 13:26:18;;;;;;;4.82;4.07;;;23.20;99.90;;;;;;5093155;28;20177;-64
2022/05/23 13:28:49;;;;;;;5.07;4.68;;;22.60;99.90;;;;;;5090171;28;20648;-64
2022/05/23 13:31:42;;;;;;;5.67;5.03;;;22.20;99.90;;;;;;5109240;28;20201;-65
2022/05/23 13:34:09;;;;;;;5.60;5.10;;;21.90;99.90;;;;;;5080861;28;21944;-66
2022/05/23 13:36:44;;;;;;;5.93;5.43;;;21.60;99.90;;;;;;5095700;28;20536;-65
2022/05/23 13:39:16;;;;;;;5.97;5.37;;;21.30;99.90;;;;;;5117780;28;20179;-66
2022/05/23 13:41:43;;;;;;;6.33;5.73;;;21.10;99.90;;;;;;5109527;28;20236;-65
2022/05/23 13:44:26;;;;;;;6.07;5.67;;;20.90;99.90;;;;;;5121783;28;20219;-64
2022/05/23 13:47:01;;;;;;;5.87;5.47;;;20.70;99.90;;;;;;5115271;28;20174;-65
2022/05/23 13:49:42;;;;;;;6.20;5.60;;;20.50;99.90;;;;;;5101227;28;20260;-65
2022/05/23 13:52:13;;;;;;;6.77;6.17;;;20.50;99.90;;;;;;5096899;28;20177;-64
2022/05/23 13:54:49;;;;;;;6.60;6.13;;;20.40;99.90;;;;;;5092421;28;20208;-64
2022/05/23 13:57:26;;;;;;;7.03;6.53;;;20.50;99.90;;;;;;5077388;28;20535;-65
2022/05/23 14:00:01;;;;;;;8.77;7.97;;;20.50;99.90;;;;;;5103876;28;20266;-65
2022/05/23 14:02:32;;;;;;;7.57;6.97;;;20.70;99.90;;;;;;5103299;28;20177;-64
2022/05/23 14:04:58;;;;;;;7.53;7.03;;;20.90;99.90;;;;;;5091434;28;20193;-65
2022/05/23 14:07:28;;;;;;;7.30;6.70;;;21.00;99.90;;;;;;5093325;28;20177;-65
2022/05/23 14:09:55;;;;;;;6.43;5.95;;;21.10;99.90;;;;;;5110625;28;20169;-65
2022/05/23 14:12:26;;;;;;;8.57;7.78;;;21.40;99.90;;;;;;5110502;28;20160;-64
2022/05/23 14:15:19;;;;;;;7.67;6.63;;;21.80;99.90;;;;;;5091069;28;20185;-64
2022/05/23 14:17:48;;;;;;;7.07;6.47;;;22.10;99.90;;;;;;5093608;28;20178;-64
2022/05/23 14:20:22;;;;;;;6.32;5.90;;;22.10;99.90;;;;;;5111935;28;20169;-65
2022/05/23 14:23:10;;;;;;;6.82;5.70;;;22.20;99.90;;;;;;5107868;28;20224;-65
2022/05/23 14:25:42;;;;;;;6.88;5.45;;;22.60;99.90;;;;;;5090810;28;20209;-65
2022/05/23 14:28:22;;;;;;;6.72;6.05;;;23.00;99.90;;;;;;5096803;28;20651;-65
2022/05/23 14:30:54;;;;;;;6.57;5.97;;;23.30;99.90;;;;;;5102119;28;20173;-65
2022/05/23 14:33:30;;;;;;;6.22;5.60;;;23.50;99.90;;;;;;5091189;28;20181;-64
2022/05/23 14:36:14;;;;;;;5.80;5.30;;;23.60;99.90;;;;;;5096520;28;20681;-65
2022/05/23 14:38:42;;;;;;;5.30;4.90;;;23.40;99.90;;;;;;5111401;28;20173;-64
2022/05/23 14:41:26;;;;;;;6.88;5.63;;;23.40;99.90;;;;;;5108295;28;20174;-65
2022/05/23 14:44:22;;;;;;;10.18;5.18;;;23.30;99.90;;;;;;5094533;28;20209;-65
2022/05/23 14:47:04;;;;;;;6.13;5.18;;;23.10;99.90;;;;;;5105625;28;20189;-65
2022/05/23 14:49:36;;;;;;;7.55;5.43;;;23.00;99.90;;;;;;5115161;28;20517;-65
2022/05/23 14:52:24;;;;;;;6.35;5.95;;;23.10;99.90;;;;;;5102208;28;20603;-65
2022/05/23 15:00:38;;;;;;;5.57;5.18;;;23.50;99.90;;;;;;5101826;28;20656;-65
2022/05/23 15:03:14;;;;;;;6.25;5.60;;;23.40;99.90;;;;;;5094384;28;20209;-65
2022/05/23 15:05:40;;;;;;;7.95;5.65;;;23.40;99.90;;;;;;5107047;28;20200;-64
2022/05/23 15:08:07;;;;;;;6.57;5.50;;;23.30;99.90;;;;;;5114765;28;20179;-65
2022/05/23 15:10:33;;;;;;;5.60;5.03;;;23.30;99.90;;;;;;5101440;28;20173;-65
2022/05/23 15:13:00;;;;;;;7.80;5.05;;;23.20;99.90;;;;;;5094315;28;20169;-64